Wetterdaten: Woche 13.11.23 - 19.11.23 (KW46)
Datum Zeit Temp. Aussen Temp. o. S. Temp +5cm Feuchte Auss Luftdruck Regen Sonnenschein Regendauer Solar Windben Empfang
13.11.2023 00:00 4,7 C 4,0 C 1,7 C 96 % 1009,2 hPa 0,0 l/m 0,00 h 0,00 h 0 W/m 3,1 km/h (1 Bft) 96,89 %
13.11.2023 01:00 5,1 C 4,5 C 2,2 C 97 % 1008,4 hPa 0,0 l/m 0,00 h 0,00 h 0 W/m 4,8 km/h (1 Bft) 97,37 %
13.11.2023 02:00 5,3 C 5,0 C 2,2 C 97 % 1007,9 hPa 0,0 l/m 0,00 h 0,00 h 0 W/m 3,2 km/h (1 Bft) 98,74 %
13.11.2023 03:00 5,7 C 5,3 C 2,8 C 97 % 1007,5 hPa 0,0 l/m 0,00 h 0,00 h 0 W/m 6,4 km/h (2 Bft) 95,36 %
13.11.2023 04:00 6,0 C 5,6 C 2,8 C 97 % 1007,2 hPa 0,0 l/m 0,00 h 0,03 h 0 W/m 8,2 km/h (2 Bft) 98,21 %
13.11.2023 05:00 6,2 C 5,6 C 2,9 C 98 % 1007,2 hPa 0,2 l/m 0,00 h 0,07 h 0 W/m 7,4 km/h (2 Bft) 96,86 %
13.11.2023 06:00 6,6 C 5,9 C 3,3 C 98 % 1006,5 hPa 0,0 l/m 0,00 h 0,00 h 0 W/m 7,5 km/h (2 Bft) 95,89 %
13.11.2023 07:00 7,1 C 6,6 C 3,9 C 99 % 1006,1 hPa 0,6 l/m 0,00 h 0,53 h 0 W/m 4,6 km/h (1 Bft) 98,26 %
13.11.2023 08:00 7,7 C 7,1 C 4,5 C 99 % 1006,0 hPa 1,2 l/m 0,00 h 1,00 h 8 W/m 4,6 km/h (1 Bft) 98,76 %
13.11.2023 09:00 8,8 C 8,2 C 5,5 C 99 % 1005,2 hPa 1,6 l/m 0,00 h 0,98 h 11 W/m 5,3 km/h (1 Bft) 92,69 %
13.11.2023 10:00 9,2 C 8,3 C 6,1 C 100 % 1004,1 hPa 0,8 l/m 0,00 h 0,37 h 15 W/m 7,4 km/h (2 Bft) 99,75 %
13.11.2023 11:00 9,4 C 8,9 C 6,3 C 100 % 1002,3 hPa 0,2 l/m 0,00 h 0,00 h 34 W/m 13,7 km/h (3 Bft) 96,38 %
13.11.2023 12:00 10,2 C 9,9 C 7,1 C 100 % 1001,1 hPa 0,2 l/m 0,00 h 0,10 h 55 W/m 9,9 km/h (2 Bft) 97,53 %
13.11.2023 13:00 10,8 C 10,4 C 7,6 C 100 % 999,6 hPa 1,4 l/m 0,00 h 0,53 h 28 W/m 7,7 km/h (2 Bft) 98,01 %
13.11.2023 14:00 13,3 C 12,6 C 9,8 C 100 % 998,4 hPa 0,8 l/m 0,00 h 0,40 h 23 W/m 24,6 km/h (4 Bft) 96,90 %
13.11.2023 15:00 13,9 C 12,8 C 10,6 C 100 % 998,0 hPa 5,0 l/m 0,00 h 0,87 h 17 W/m 22,1 km/h (4 Bft) 97,13 %
13.11.2023 16:00 13,7 C 12,7 C 10,4 C 100 % 998,1 hPa 0,2 l/m 0,10 h 0,33 h 13 W/m 18,9 km/h (3 Bft) 98,36 %
13.11.2023 17:00 13,0 C 11,9 C 9,2 C 97 % 999,0 hPa 0,0 l/m 0,00 h 0,00 h 0 W/m 19,3 km/h (3 Bft) 95,82 %
13.11.2023 18:00 12,4 C 11,7 C 8,5 C 91 % 1000,2 hPa 0,0 l/m 0,00 h 0,00 h 0 W/m 21,9 km/h (4 Bft) 98,48 %
13.11.2023 19:00 12,1 C 11,2 C 8,0 C 85 % 1001,2 hPa 0,0 l/m 0,00 h 0,00 h 0 W/m 22,7 km/h (4 Bft) 96,77 %
13.11.2023 20:00 11,6 C 10,6 C 7,8 C 86 % 1001,8 hPa 0,0 l/m 0,00 h 0,00 h 0 W/m 19,8 km/h (4 Bft) 98,27 %
13.11.2023 21:00 11,3 C 10,6 C 7,6 C 87 % 1002,6 hPa 0,0 l/m 0,00 h 0,00 h 0 W/m 19,5 km/h (3 Bft) 95,95 %
13.11.2023 22:00 11,2 C 10,5 C 7,2 C 88 % 1003,0 hPa 0,0 l/m 0,00 h 0,00 h 0 W/m 20,1 km/h (4 Bft) 98,49 %
13.11.2023 23:00 11,0 C 10,1 C 7,2 C 89 % 1003,3 hPa 0,0 l/m 0,00 h 0,00 h 0 W/m 23,1 km/h (4 Bft) 97,83 %
14.11.2023 00:00 11,0 C 10,3 C 7,2 C 89 % 1003,5 hPa 0,0 l/m 0,00 h 0,00 h 0 W/m 23,3 km/h (4 Bft) 95,16 %
14.11.2023 01:00 11,1 C 10,4 C 7,2 C 89 % 1003,4 hPa 0,0 l/m 0,00 h 0,00 h 0 W/m 25,0 km/h (4 Bft) 99,19 %
14.11.2023 02:00 11,3 C 10,6 C 7,2 C 88 % 1003,6 hPa 0,0 l/m 0,00 h 0,03 h 0 W/m 28,5 km/h (4 Bft) 95,88 %
14.11.2023 03:00 11,2 C 10,6 C 7,2 C 88 % 1004,0 hPa 0,0 l/m 0,00 h 0,00 h 0 W/m 29,8 km/h (5 Bft) 98,18 %
14.11.2023 04:00 11,1 C 10,3 C 6,9 C 89 % 1004,3 hPa 0,0 l/m 0,00 h 0,28 h 0 W/m 29,0 km/h (5 Bft) 98,20 %
14.11.2023 05:00 11,1 C 10,3 C 7,1 C 89 % 1004,5 hPa 0,0 l/m 0,00 h 0,03 h 0 W/m 24,2 km/h (4 Bft) 96,11 %
14.11.2023 06:00 11,2 C 10,6 C 7,1 C 89 % 1004,7 hPa 0,0 l/m 0,00 h 0,00 h 0 W/m 27,7 km/h (4 Bft) 97,24 %
14.11.2023 07:00 11,3 C 10,6 C 7,2 C 89 % 1005,1 hPa 0,0 l/m 0,00 h 0,00 h 8 W/m 26,2 km/h (4 Bft) 98,22 %
14.11.2023 08:00 11,3 C 10,6 C 7,2 C 89 % 1005,5 hPa 0,0 l/m 0,00 h 0,00 h 23 W/m 22,2 km/h (4 Bft) 96,07 %
14.11.2023 09:00 11,6 C 11,2 C 7,7 C 90 % 1005,5 hPa 0,0 l/m 0,00 h 0,00 h 58 W/m 21,9 km/h (4 Bft) 99,00 %
14.11.2023 10:00 11,9 C 11,7 C 7,5 C 90 % 1005,5 hPa 0,0 l/m 0,03 h 0,13 h 77 W/m 24,2 km/h (4 Bft) 96,23 %
14.11.2023 11:00 12,2 C 11,6 C 7,9 C 89 % 1005,7 hPa 0,4 l/m 0,00 h 0,40 h 82 W/m 28,2 km/h (4 Bft) 96,25 %
14.11.2023 12:00 11,4 C 10,4 C 6,9 C 95 % 1005,0 hPa 0,6 l/m 0,00 h 0,18 h 87 W/m 21,6 km/h (4 Bft) 97,57 %
14.11.2023 13:00 11,7 C 11,7 C 7,0 C 92 % 1004,3 hPa 0,0 l/m 0,23 h 0,00 h 138 W/m 21,3 km/h (4 Bft) 97,84 %
14.11.2023 14:00 11,9 C 11,6 C 6,8 C 89 % 1003,8 hPa 0,0 l/m 0,40 h 0,00 h 111 W/m 15,3 km/h (3 Bft) 95,22 %
14.11.2023 15:00 11,8 C 10,9 C 7,1 C 92 % 1003,4 hPa 1,0 l/m 0,00 h 0,60 h 16 W/m 11,6 km/h (2 Bft) 98,09 %
14.11.2023 16:00 11,0 C 9,8 C 6,7 C 95 % 1002,8 hPa 1,8 l/m 0,00 h 1,00 h 5 W/m 10,1 km/h (2 Bft) 97,59 %
14.11.2023 17:00 10,4 C 9,4 C 6,7 C 97 % 1002,0 hPa 2,4 l/m 0,00 h 0,92 h 0 W/m 5,3 km/h (1 Bft) 97,32 %
14.11.2023 18:00 10,3 C 9,4 C 6,7 C 98 % 1001,0 hPa 3,8 l/m 0,00 h 1,00 h 0 W/m 9,6 km/h (2 Bft) 95,71 %
14.11.2023 19:00 10,3 C 9,3 C 6,6 C 98 % 1000,4 hPa 1,8 l/m 0,00 h 0,83 h 0 W/m 14,7 km/h (3 Bft) 98,93 %
14.11.2023 20:00 9,6 C 8,7 C 6,0 C 98 % 1002,4 hPa 0,6 l/m 0,00 h 0,77 h 0 W/m 16,1 km/h (3 Bft) 94,30 %
14.11.2023 21:00 9,4 C 8,9 C 6,1 C 98 % 1004,2 hPa 1,2 l/m 0,00 h 0,97 h 0 W/m 18,3 km/h (3 Bft) 96,61 %
14.11.2023 22:00 9,4 C 8,8 C 6,1 C 98 % 1005,4 hPa 1,8 l/m 0,00 h 0,92 h 0 W/m 13,7 km/h (3 Bft) 98,44 %
14.11.2023 23:00 9,6 C 8,9 C 6,1 C 98 % 1006,7 hPa 1,0 l/m 0,00 h 0,63 h 0 W/m 14,0 km/h (3 Bft) 95,20 %
15.11.2023 00:00 9,9 C 9,2 C 6,6 C 98 % 1007,8 hPa 1,2 l/m 0,00 h 0,38 h 0 W/m 16,6 km/h (3 Bft) 97,21 %
15.11.2023 01:00 10,1 C 9,4 C 6,7 C 98 % 1008,6 hPa 0,0 l/m 0,00 h 0,00 h 0 W/m 19,9 km/h (4 Bft) 97,82 %
15.11.2023 02:00 10,2 C 9,4 C 6,7 C 97 % 1009,6 hPa 0,0 l/m 0,00 h 0,17 h 0 W/m 16,0 km/h (3 Bft) 95,91 %
15.11.2023 03:00 10,2 C 9,4 C 6,7 C 97 % 1010,4 hPa 0,0 l/m 0,00 h 0,00 h 0 W/m 17,3 km/h (3 Bft) 98,12 %
15.11.2023 04:00 10,2 C 9,4 C 6,7 C 96 % 1011,0 hPa 0,0 l/m 0,00 h 0,00 h 0 W/m 17,9 km/h (3 Bft) 96,49 %
15.11.2023 05:00 10,1 C 9,4 C 6,7 C 96 % 1011,9 hPa 0,0 l/m 0,00 h 0,10 h 0 W/m 20,1 km/h (4 Bft) 96,30 %
15.11.2023 06:00 9,9 C 9,1 C 6,6 C 96 % 1012,5 hPa 1,4 l/m 0,00 h 0,37 h 0 W/m 13,9 km/h (3 Bft) 98,12 %
15.11.2023 07:00 9,8 C 8,9 C 6,7 C 97 % 1012,8 hPa 0,4 l/m 0,00 h 0,40 h 0 W/m 13,6 km/h (3 Bft) 95,69 %
15.11.2023 08:00 9,8 C 9,0 C 6,5 C 97 % 1013,3 hPa 0,0 l/m 0,00 h 0,00 h 19 W/m 16,5 km/h (3 Bft) 97,30 %
15.11.2023 09:00 10,1 C 9,5 C 6,6 C 96 % 1014,2 hPa 0,0 l/m 0,00 h 0,00 h 39 W/m 15,1 km/h (3 Bft) 97,00 %
15.11.2023 10:00 10,6 C 10,5 C 6,8 C 94 % 1014,8 hPa 0,0 l/m 0,15 h 0,00 h 107 W/m 15,5 km/h (3 Bft) 99,04 %
15.11.2023 11:00 11,2 C 11,0 C 7,1 C 91 % 1015,1 hPa 0,0 l/m 0,02 h 0,00 h 119 W/m 13,9 km/h (3 Bft) 96,34 %
15.11.2023 12:00 11,6 C 11,4 C 7,3 C 88 % 1015,1 hPa 0,0 l/m 0,00 h 0,00 h 103 W/m 16,0 km/h (3 Bft) 97,82 %
15.11.2023 13:00 11,9 C 12,6 C 8,1 C 85 % 1015,1 hPa 0,0 l/m 0,40 h 0,00 h 161 W/m 17,4 km/h (3 Bft) 96,50 %
15.11.2023 14:00 12,1 C 12,3 C 8,2 C 83 % 1015,1 hPa 0,0 l/m 0,55 h 0,00 h 149 W/m 18,7 km/h (3 Bft) 95,80 %
15.11.2023 15:00 11,5 C 10,7 C 7,1 C 83 % 1015,5 hPa 0,8 l/m 0,00 h 0,37 h 34 W/m 19,6 km/h (3 Bft) 97,83 %
15.11.2023 16:00 9,4 C 8,4 C 5,0 C 92 % 1016,0 hPa 0,6 l/m 0,00 h 0,18 h 11 W/m 7,1 km/h (2 Bft) 98,04 %
15.11.2023 17:00 8,8 C 7,7 C 4,4 C 94 % 1016,4 hPa 0,0 l/m 0,00 h 0,00 h 0 W/m 2,1 km/h (1 Bft) 96,18 %
15.11.2023 18:00 8,2 C 7,3 C 4,0 C 95 % 1016,9 hPa 0,0 l/m 0,00 h 0,00 h 0 W/m 3,6 km/h (1 Bft) 98,56 %
15.11.2023 19:00 8,2 C 7,7 C 3,9 C 94 % 1017,0 hPa 0,0 l/m 0,00 h 0,00 h 0 W/m 7,4 km/h (2 Bft) 98,12 %
15.11.2023 20:00 8,0 C 7,2 C 3,9 C 93 % 1017,0 hPa 0,0 l/m 0,00 h 0,00 h 0 W/m 7,1 km/h (2 Bft) 96,22 %
15.11.2023 21:00 8,0 C 7,2 C 3,9 C 92 % 1017,0 hPa 0,0 l/m 0,00 h 0,00 h 0 W/m 11,3 km/h (2 Bft) 97,35 %
15.11.2023 22:00 7,8 C 7,1 C 4,3 C 92 % 1016,8 hPa 0,0 l/m 0,00 h 0,00 h 0 W/m 13,0 km/h (3 Bft) 96,61 %
15.11.2023 23:00 7,7 C 7,1 C 4,3 C 92 % 1016,8 hPa 0,0 l/m 0,00 h 0,00 h 0 W/m 13,1 km/h (3 Bft) 96,64 %
16.11.2023 00:00 7,7 C 7,0 C 4,2 C 92 % 1017,0 hPa 0,0 l/m 0,00 h 0,00 h 0 W/m 13,9 km/h (3 Bft) 93,70 %
16.11.2023 01:00 7,9 C 7,2 C 4,4 C 91 % 1016,9 hPa 0,0 l/m 0,00 h 0,00 h 0 W/m 12,5 km/h (3 Bft) 97,51 %
16.11.2023 02:00 7,9 C 7,2 C 4,4 C 91 % 1016,7 hPa 0,0 l/m 0,00 h 0,00 h 0 W/m 10,9 km/h (2 Bft) 96,70 %
16.11.2023 03:00 7,5 C 6,8 C 4,0 C 91 % 1016,5 hPa 0,0 l/m 0,00 h 0,00 h 0 W/m 10,1 km/h (2 Bft) 96,40 %
16.11.2023 04:00 7,3 C 6,7 C 3,9 C 92 % 1016,5 hPa 0,0 l/m 0,00 h 0,00 h 0 W/m 6,2 km/h (2 Bft) 97,94 %
16.11.2023 05:00 7,3 C 6,7 C 3,9 C 93 % 1016,3 hPa 0,0 l/m 0,00 h 0,00 h 0 W/m 6,3 km/h (2 Bft) 96,58 %
16.11.2023 06:00 7,4 C 6,7 C 4,2 C 93 % 1016,2 hPa 0,0 l/m 0,00 h 0,00 h 0 W/m 6,9 km/h (2 Bft) 96,26 %
16.11.2023 07:00 7,4 C 6,7 C 4,4 C 94 % 1015,8 hPa 0,0 l/m 0,00 h 0,00 h 0 W/m 3,6 km/h (1 Bft) 97,08 %
16.11.2023 08:00 7,4 C 6,7 C 4,3 C 94 % 1015,1 hPa 0,0 l/m 0,00 h 0,00 h 7 W/m 0,2 km/h (0 Bft) 97,55 %
16.11.2023 09:00 7,6 C 7,6 C 4,8 C 94 % 1014,7 hPa 0,0 l/m 0,00 h 0,00 h 52 W/m 0,7 km/h (0 Bft) 95,32 %
16.11.2023 10:00 8,0 C 7,9 C 5,1 C 93 % 1014,3 hPa 0,0 l/m 0,00 h 0,00 h 82 W/m 1,8 km/h (1 Bft) 98,74 %
16.11.2023 11:00 8,3 C 8,3 C 5,6 C 92 % 1013,6 hPa 0,0 l/m 0,00 h 0,00 h 93 W/m 2,2 km/h (1 Bft) 97,74 %
16.11.2023 12:00 8,6 C 8,3 C 5,4 C 91 % 1012,7 hPa 0,0 l/m 0,00 h 0,00 h 73 W/m 1,3 km/h (1 Bft) 94,59 %
16.11.2023 13:00 8,4 C 7,8 C 5,0 C 91 % 1011,4 hPa 0,0 l/m 0,00 h 0,00 h 47 W/m 0,3 km/h (0 Bft) 98,61 %
16.11.2023 14:00 8,3 C 7,8 C 5,0 C 92 % 1010,5 hPa 0,0 l/m 0,00 h 0,00 h 43 W/m 0,9 km/h (0 Bft) 97,68 %
16.11.2023 15:00 8,4 C 8,4 C 4,7 C 93 % 1010,3 hPa 0,0 l/m 0,00 h 0,00 h 21 W/m 1,3 km/h (1 Bft) 95,87 %
16.11.2023 16:00 8,3 C 7,8 C 4,4 C 93 % 1010,5 hPa 0,0 l/m 0,00 h 0,00 h 7 W/m 2,3 km/h (1 Bft) 98,26 %
16.11.2023 17:00 7,9 C 7,2 C 4,3 C 94 % 1010,4 hPa 0,0 l/m 0,00 h 0,00 h 0 W/m 6,1 km/h (2 Bft) 97,55 %
16.11.2023 18:00 7,5 C 6,8 C 3,9 C 94 % 1010,8 hPa 0,0 l/m 0,00 h 0,00 h 0 W/m 4,2 km/h (1 Bft) 96,14 %
16.11.2023 19:00 7,5 C 7,0 C 4,1 C 95 % 1011,2 hPa 0,0 l/m 0,00 h 0,00 h 0 W/m 4,5 km/h (1 Bft) 99,22 %
16.11.2023 20:00 7,6 C 7,2 C 4,4 C 95 % 1011,6 hPa 0,0 l/m 0,00 h 0,00 h 0 W/m 5,0 km/h (1 Bft) 96,29 %
16.11.2023 21:00 7,3 C 6,8 C 4,2 C 95 % 1012,5 hPa 0,0 l/m 0,00 h 0,00 h 0 W/m 5,6 km/h (1 Bft) 95,00 %
16.11.2023 22:00 6,8 C 5,9 C 3,3 C 94 % 1013,2 hPa 0,0 l/m 0,00 h 0,00 h 0 W/m 5,1 km/h (1 Bft) 97,38 %
16.11.2023 23:00 6,1 C 5,4 C 2,8 C 95 % 1014,2 hPa 0,0 l/m 0,00 h 0,00 h 0 W/m 2,8 km/h (1 Bft) 97,75 %
17.11.2023 00:00 5,7 C 4,6 C 2,3 C 95 % 1015,3 hPa 0,0 l/m 0,00 h 0,00 h 0 W/m 0,0 km/h (0 Bft) 97,34 %
17.11.2023 01:00 5,1 C 4,3 C 1,7 C 95 % 1016,2 hPa 0,0 l/m 0,00 h 0,00 h 0 W/m 0,0 km/h (0 Bft) 94,84 %
17.11.2023 02:00 4,7 C 3,9 C 1,5 C 96 % 1017,1 hPa 0,0 l/m 0,00 h 0,00 h 0 W/m 0,0 km/h (0 Bft) 97,80 %
17.11.2023 03:00 4,4 C 3,3 C 1,1 C 96 % 1017,5 hPa 0,0 l/m 0,00 h 0,00 h 0 W/m 0,0 km/h (0 Bft) 96,83 %
17.11.2023 04:00 3,7 C 2,7 C 0,6 C 96 % 1017,7 hPa 0,0 l/m 0,00 h 0,00 h 0 W/m 0,0 km/h (0 Bft) 95,15 %
17.11.2023 05:00 3,3 C 2,5 C 0,6 C 97 % 1018,0 hPa 0,0 l/m 0,00 h 0,00 h 0 W/m 0,0 km/h (0 Bft) 98,19 %
17.11.2023 06:00 3,4 C 2,8 C 0,9 C 97 % 1018,2 hPa 0,0 l/m 0,00 h 0,00 h 0 W/m 1,1 km/h (1 Bft) 95,60 %
17.11.2023 07:00 3,4 C 2,8 C 1,1 C 98 % 1018,5 hPa 0,0 l/m 0,00 h 0,00 h 0 W/m 2,1 km/h (1 Bft) 96,28 %
17.11.2023 08:00 3,9 C 3,3 C 1,6 C 98 % 1018,8 hPa 0,0 l/m 0,00 h 0,00 h 16 W/m 1,9 km/h (1 Bft) 96,06 %
17.11.2023 09:00 4,1 C 3,6 C 1,8 C 98 % 1019,3 hPa 0,0 l/m 0,00 h 0,00 h 34 W/m 3,0 km/h (1 Bft) 97,42 %
17.11.2023 10:00 4,5 C 4,3 C 2,4 C 99 % 1019,6 hPa 0,0 l/m 0,00 h 0,02 h 43 W/m 4,4 km/h (1 Bft) 95,93 %
17.11.2023 11:00 5,2 C 5,2 C 2,9 C 99 % 1019,9 hPa 0,0 l/m 0,00 h 0,08 h 59 W/m 3,3 km/h (1 Bft) 97,68 %
17.11.2023 12:00 5,9 C 6,2 C 3,9 C 99 % 1020,1 hPa 0,0 l/m 0,00 h 0,00 h 72 W/m 0,2 km/h (0 Bft) 98,38 %
17.11.2023 13:00 6,4 C 6,9 C 4,5 C 99 % 1020,6 hPa 0,0 l/m 0,00 h 0,00 h 99 W/m 0,0 km/h (0 Bft) 92,68 %
17.11.2023 14:00 6,7 C 7,0 C 4,6 C 99 % 1021,2 hPa 0,0 l/m 0,00 h 0,00 h 67 W/m 3,2 km/h (1 Bft) 98,78 %
17.11.2023 15:00 6,6 C 6,6 C 4,1 C 99 % 1021,8 hPa 0,0 l/m 0,13 h 0,00 h 55 W/m 2,0 km/h (1 Bft) 97,63 %
17.11.2023 16:00 6,1 C 4,9 C 2,7 C 98 % 1022,2 hPa 0,0 l/m 0,00 h 0,00 h 15 W/m 0,0 km/h (0 Bft) 95,67 %
17.11.2023 17:00 5,5 C 4,4 C 1,6 C 97 % 1022,6 hPa 0,0 l/m 0,00 h 0,00 h 0 W/m 0,0 km/h (0 Bft) 94,72 %
17.11.2023 18:00 4,7 C 3,5 C 0,7 C 95 % 1023,1 hPa 0,0 l/m 0,00 h 0,00 h 0 W/m 0,0 km/h (0 Bft) 98,58 %
17.11.2023 19:00 3,8 C 2,8 C 0,3 C 95 % 1023,7 hPa 0,0 l/m 0,00 h 0,00 h 0 W/m 0,0 km/h (0 Bft) 98,35 %
17.11.2023 20:00 3,6 C 2,8 C 0,3 C 96 % 1024,1 hPa 0,0 l/m 0,00 h 0,00 h 0 W/m 0,5 km/h (0 Bft) 95,79 %
17.11.2023 21:00 3,7 C 2,8 C 0,8 C 96 % 1024,5 hPa 0,0 l/m 0,00 h 0,00 h 0 W/m 0,8 km/h (0 Bft) 98,73 %
17.11.2023 22:00 3,4 C 2,8 C 0,8 C 97 % 1024,7 hPa 0,2 l/m 0,00 h 0,00 h 0 W/m 3,1 km/h (1 Bft) 95,33 %
17.11.2023 23:00 3,7 C 3,3 C 1,5 C 97 % 1024,9 hPa 0,0 l/m 0,00 h 0,00 h 0 W/m 1,3 km/h (1 Bft) 98,25 %
18.11.2023 00:00 4,0 C 3,3 C 1,7 C 98 % 1025,1 hPa 0,0 l/m 0,00 h 0,00 h 0 W/m 7,0 km/h (2 Bft) 96,16 %
18.11.2023 01:00 4,1 C 3,3 C 1,7 C 98 % 1025,1 hPa 0,0 l/m 0,00 h 0,00 h 0 W/m 6,4 km/h (2 Bft) 98,07 %
18.11.2023 02:00 4,0 C 3,3 C 1,7 C 98 % 1025,1 hPa 0,0 l/m 0,00 h 0,00 h 0 W/m 8,4 km/h (2 Bft) 97,34 %
18.11.2023 03:00 3,8 C 3,3 C 1,7 C 98 % 1025,1 hPa 0,0 l/m 0,00 h 0,00 h 0 W/m 11,7 km/h (2 Bft) 95,87 %
18.11.2023 04:00 3,9 C 3,3 C 1,7 C 98 % 1024,8 hPa 0,0 l/m 0,00 h 0,00 h 0 W/m 12,3 km/h (3 Bft) 99,32 %
18.11.2023 05:00 4,0 C 3,3 C 1,7 C 98 % 1024,4 hPa 0,0 l/m 0,00 h 0,00 h 0 W/m 14,0 km/h (3 Bft) 95,40 %
18.11.2023 06:00 3,9 C 3,3 C 1,7 C 98 % 1023,6 hPa 0,0 l/m 0,00 h 0,00 h 0 W/m 9,9 km/h (2 Bft) 97,14 %
18.11.2023 07:00 4,1 C 3,7 C 1,8 C 99 % 1023,2 hPa 0,0 l/m 0,00 h 0,00 h 0 W/m 9,9 km/h (2 Bft) 97,46 %
18.11.2023 08:00 4,4 C 4,1 C 2,2 C 99 % 1023,2 hPa 0,0 l/m 0,00 h 0,00 h 13 W/m 11,9 km/h (2 Bft) 98,37 %
18.11.2023 09:00 5,0 C 4,8 C 2,9 C 99 % 1023,0 hPa 0,0 l/m 0,00 h 0,00 h 37 W/m 13,1 km/h (3 Bft) 96,53 %
18.11.2023 10:00 5,5 C 5,4 C 3,3 C 99 % 1022,5 hPa 0,0 l/m 0,00 h 0,00 h 44 W/m 13,0 km/h (3 Bft) 97,46 %
18.11.2023 11:00 6,1 C 6,0 C 3,9 C 98 % 1021,7 hPa 0,0 l/m 0,00 h 0,03 h 44 W/m 16,4 km/h (3 Bft) 98,51 %
18.11.2023 12:00 6,7 C 6,4 C 3,9 C 98 % 1020,9 hPa 0,0 l/m 0,00 h 0,17 h 49 W/m 12,0 km/h (2 Bft) 96,75 %
18.11.2023 13:00 7,2 C 6,7 C 4,2 C 97 % 1019,7 hPa 0,4 l/m 0,00 h 0,60 h 36 W/m 12,0 km/h (2 Bft) 94,61 %
18.11.2023 14:00 7,3 C 6,7 C 4,3 C 97 % 1017,7 hPa 0,4 l/m 0,00 h 0,37 h 37 W/m 18,0 km/h (3 Bft) 99,23 %
18.11.2023 15:00 7,3 C 6,6 C 4,4 C 97 % 1016,4 hPa 1,0 l/m 0,00 h 0,60 h 16 W/m 21,5 km/h (4 Bft) 94,97 %
18.11.2023 16:00 7,1 C 6,1 C 4,4 C 98 % 1015,0 hPa 4,4 l/m 0,00 h 1,00 h 0 W/m 23,0 km/h (4 Bft) 98,61 %
18.11.2023 17:00 7,1 C 6,2 C 4,4 C 98 % 1014,1 hPa 2,4 l/m 0,00 h 0,62 h 0 W/m 21,4 km/h (4 Bft) 96,88 %
18.11.2023 18:00 7,3 C 6,7 C 4,5 C 99 % 1013,4 hPa 0,8 l/m 0,00 h 0,03 h 0 W/m 20,0 km/h (4 Bft) 95,79 %
18.11.2023 19:00 7,6 C 6,9 C 5,0 C 99 % 1013,1 hPa 0,0 l/m 0,00 h 0,00 h 0 W/m 15,3 km/h (3 Bft) 98,91 %
18.11.2023 20:00 8,1 C 7,4 C 5,6 C 99 % 1012,9 hPa 0,4 l/m 0,00 h 0,10 h 0 W/m 12,3 km/h (3 Bft) 97,83 %
18.11.2023 21:00 8,7 C 8,0 C 6,1 C 100 % 1012,0 hPa 0,0 l/m 0,00 h 0,00 h 0 W/m 10,2 km/h (2 Bft) 96,30 %
18.11.2023 22:00 9,0 C 8,3 C 6,5 C 100 % 1011,6 hPa 0,0 l/m 0,00 h 0,00 h 0 W/m 5,0 km/h (1 Bft) 98,47 %
18.11.2023 23:00 10,2 C 9,7 C 7,5 C 100 % 1011,1 hPa 0,2 l/m 0,00 h 0,17 h 0 W/m 12,5 km/h (3 Bft) 95,32 %
19.11.2023 00:00 11,4 C 10,7 C 8,6 C 100 % 1010,3 hPa 0,0 l/m 0,00 h 0,28 h 0 W/m 25,3 km/h (4 Bft) 97,38 %
19.11.2023 01:00 11,7 C 11,1 C 8,9 C 100 % 1010,2 hPa 2,0 l/m 0,00 h 0,40 h 0 W/m 16,3 km/h (3 Bft) 97,40 %
19.11.2023 02:00 12,1 C 11,2 C 9,3 C 100 % 1009,9 hPa 0,0 l/m 0,00 h 0,27 h 0 W/m 16,3 km/h (3 Bft) 95,58 %
19.11.2023 03:00 12,2 C 11,7 C 9,4 C 100 % 1009,4 hPa 0,0 l/m 0,00 h 0,25 h 0 W/m 16,2 km/h (3 Bft) 98,39 %
19.11.2023 04:00 12,2 C 11,7 C 9,2 C 100 % 1009,1 hPa 0,0 l/m 0,00 h 0,00 h 0 W/m 16,7 km/h (3 Bft) 97,36 %
19.11.2023 05:00 11,9 C 11,1 C 8,9 C 97 % 1009,2 hPa 0,0 l/m 0,00 h 0,00 h 0 W/m 17,6 km/h (3 Bft) 98,10 %
19.11.2023 06:00 11,9 C 11,1 C 8,3 C 95 % 1009,4 hPa 0,0 l/m 0,00 h 0,00 h 0 W/m 20,3 km/h (4 Bft) 97,32 %
19.11.2023 07:00 11,8 C 10,9 C 8,0 C 92 % 1009,8 hPa 0,0 l/m 0,00 h 0,00 h 0 W/m 20,0 km/h (4 Bft) 97,58 %
19.11.2023 08:00 11,3 C 10,6 C 7,3 C 92 % 1009,9 hPa 0,0 l/m 0,00 h 0,00 h 18 W/m 20,5 km/h (4 Bft) 96,73 %
19.11.2023 09:00 11,6 C 11,2 C 8,1 C 91 % 1010,6 hPa 0,0 l/m 0,37 h 0,00 h 79 W/m 21,5 km/h (4 Bft) 96,82 %
19.11.2023 10:00 12,3 C 12,2 C 9,3 C 89 % 1010,7 hPa 0,0 l/m 0,43 h 0,00 h 123 W/m 24,1 km/h (4 Bft) 97,66 %
19.11.2023 11:00 12,9 C 12,5 C 9,6 C 86 % 1010,6 hPa 0,0 l/m 0,07 h 0,00 h 86 W/m 26,2 km/h (4 Bft) 97,64 %
19.11.2023 12:00 13,1 C 12,8 C 9,4 C 84 % 1010,4 hPa 0,0 l/m 0,03 h 0,00 h 94 W/m 22,5 km/h (4 Bft) 96,65 %
19.11.2023 13:00 13,4 C 13,9 C 9,6 C 84 % 1010,0 hPa 0,0 l/m 0,70 h 0,20 h 171 W/m 24,4 km/h (4 Bft) 98,71 %
19.11.2023 14:00 13,3 C 13,3 C 9,3 C 85 % 1009,9 hPa 0,0 l/m 0,63 h 0,07 h 130 W/m 21,7 km/h (4 Bft) 97,28 %
19.11.2023 15:00 12,3 C 11,3 C 7,5 C 89 % 1009,8 hPa 0,6 l/m 0,00 h 0,50 h 32 W/m 17,5 km/h (3 Bft) 97,51 %
19.11.2023 16:00 11,3 C 10,6 C 6,8 C 94 % 1009,6 hPa 0,2 l/m 0,10 h 0,23 h 14 W/m 16,7 km/h (3 Bft) 97,74 %
19.11.2023 17:00 11,2 C 10,6 C 6,7 C 94 % 1009,6 hPa 0,2 l/m 0,00 h 0,30 h 0 W/m 21,0 km/h (4 Bft) 97,00 %
19.11.2023 18:00 11,0 C 10,2 C 6,7 C 94 % 1009,6 hPa 0,6 l/m 0,00 h 0,43 h 0 W/m 15,7 km/h (3 Bft) 97,91 %
19.11.2023 19:00 11,0 C 10,2 C 6,7 C 94 % 1009,5 hPa 0,2 l/m 0,00 h 0,47 h 0 W/m 18,2 km/h (3 Bft) 96,24 %
19.11.2023 20:00 10,7 C 9,5 C 6,7 C 96 % 1009,3 hPa 0,6 l/m 0,00 h 0,63 h 0 W/m 23,2 km/h (4 Bft) 95,11 %
19.11.2023 21:00 10,6 C 9,5 C 7,1 C 97 % 1009,3 hPa 0,4 l/m 0,00 h 0,23 h 0 W/m 21,0 km/h (4 Bft) 97,96 %
19.11.2023 22:00 10,7 C 10,0 C 7,2 C 98 % 1009,5 hPa 0,2 l/m 0,00 h 0,13 h 0 W/m 24,3 km/h (4 Bft) 97,28 %
19.11.2023 23:00 10,8 C 10,1 C 7,2 C 97 % 1009,7 hPa 0,0 l/m 0,00 h 0,17 h 0 W/m 20,2 km/h (4 Bft) 96,94 %
Min-Datum _ 17.11.23 17.11.23 17.11.23 15.11.23 13.11.23 - - - - 13.11.23 16.11.23
_ Min-Zeit 05:30 04:14 19:18 14:34 15:42 - - - - 00:00 00:02
Minimum _ 3,1 C 2,2 C 0,0 C 82 % 997,8 hPa - - - - 0,0 km/h (0 Bft) 11,11 %
Max-Datum _ 13.11.23 19.11.23 13.11.23 13.11.23 18.11.23 13.11.23 15.11.23 13.11.23 15.11.23 14.11.23 13.11.23
_ Max-Zeit 15:14 13:08 14:46 09:50 02:35 15:36 14:10 09:10 13:22 09:12 00:14
Maximum _ 13,9 C 16,1 C 10,6 C 100 % 1025,3 hPa 5,0 l/m 0,08 h 0,08 h 381 W/m 57,9 km/h
SO (7 Bft)
100,00 %
Durchschnitt _ 8,6 C 8,0 C 5,3 C 95 % 1012,1 hPa #48,2 l/m #4:21 h #24:18 h 55 W/m 12,3 km/h (3 Bft) 97,07 %
© 2023 W. Hausmann